CWLY

Lytton Airport

Lytton, Canada
METAR CWLY 220746Z AUTO 00000KT 9SM -RA OVC017 11/09 A2979 RMK SLP092
Observed Flight Rules
Sep-22 @ 07:46 UTC (14 minutes ago) Marginal Visual Flight Rules
Visibility Clouds Conditions
9 miles
Temperatures Readings
Current 11°C / 52°F
Dewpoint 9°C / 48°F
Humidity 88%
Altimeter 29.79" Hg
Pressure 1009.2 hPa
Elevation 229
METAR CWLY 220746Z AUTO 00000KT 9SM -RA OVC017 11/09 A2979 RMK SLP092
Observed Flight Rules
Sep-22 @ 07:46 UTC
(14 minutes ago)
MVFR
Clouds
Conditions
Temperature Dewpoint
11°C / 52°F 9°C / 48°F
Humidity Altimeter Pressure
88% 29.79" Hg 1009.2 hPa